Time;durP1;ratioP1;P1;durP2;ratioP2;P2;SDS_P1;SDS_P2;PMS_P1;PMS_P2;Temp;Humidity;BMP_temperature;BMP_pressure;BME280_temperature;BME280_humidity;BME280_pressure;Samples;Min_cycle;Max_cycle;Signal;HPM_P1;HPM_P2
2021/12/07 00:01:38;;;;;;;6.70;4.18;;;;;;;;;;5055172;28;20064;-89
2021/12/07 00:04:03;;;;;;;7.88;4.70;;;;;;;;;;5056515;28;20112;-88
2021/12/07 00:06:29;;;;;;;8.25;4.70;;;;;;;;;;5039700;28;20529;-88
2021/12/07 00:08:56;;;;;;;10.07;4.38;;;;;;;;;;5057459;28;20492;-88
2021/12/07 00:11:21;;;;;;;8.25;4.88;;;;;;;;;;5055175;28;20072;-88
2021/12/07 00:13:46;;;;;;;9.32;4.80;;;;;;;;;;5057006;28;20448;-88
2021/12/07 00:16:13;;;;;;;8.50;4.78;;;;;;;;;;5055626;28;20047;-89
2021/12/07 00:18:38;;;;;;;8.70;5.18;;;;;;;;;;5056097;28;20083;-89
2021/12/07 00:21:04;;;;;;;7.95;4.93;;;;;;;;;;5055621;28;20029;-89
2021/12/07 00:23:29;;;;;;;7.93;4.53;;;;;;;;;;5055687;28;20098;-89
2021/12/07 00:25:54;;;;;;;10.32;5.00;;;;;;;;;;5056931;28;20108;-87
2021/12/07 00:28:21;;;;;;;7.25;4.63;;;;;;;;;;5038677;28;20041;-88
2021/12/07 00:30:48;;;;;;;8.73;4.80;;;;;;;;;;5056585;28;20382;-88
2021/12/07 00:33:29;;;;;;;7.28;3.72;;;;;;;;;;5038749;28;20029;-88
2021/12/07 00:35:54;;;;;;;7.32;4.38;;;;;;;;;;5056067;28;20562;-89
2021/12/07 00:38:19;;;;;;;11.15;4.78;;;;;;;;;;5056399;28;20017;-88
2021/12/07 00:40:45;;;;;;;7.00;4.60;;;;;;;;;;5057104;28;20033;-87
2021/12/07 00:43:10;;;;;;;7.35;4.13;;;;;;;;;;5056024;28;20473;-88
2021/12/07 00:45:35;;;;;;;9.05;4.80;;;;;;;;;;5056493;28;20098;-87
2021/12/07 00:48:01;;;;;;;7.88;4.25;;;;;;;;;;5055386;28;20041;-88
2021/12/07 00:50:26;;;;;;;9.32;4.75;;;;;;;;;;5038887;28;20119;-88
2021/12/07 00:52:51;;;;;;;8.45;4.88;;;;;;;;;;5039724;28;20072;-88
2021/12/07 00:55:17;;;;;;;9.55;5.03;;;;;;;;;;5056603;28;20061;-88
2021/12/07 00:57:42;;;;;;;9.57;5.53;;;;;;;;;;5055565;28;20029;-88
2021/12/07 01:00:08;;;;;;;7.88;4.90;;;;;;;;;;5039359;28;20059;-87
2021/12/07 01:02:33;;;;;;;10.63;5.07;;;;;;;;;;5038925;28;20064;-88
2021/12/07 01:05:08;;;;;;;7.72;4.50;;;;;;;;;;5054726;28;20025;-87
2021/12/07 01:08:12;;;;;;;11.98;5.63;;;;;;;;;;5056024;28;20037;-88
2021/12/07 01:26:45;;;;;;;7.65;4.50;;;;;;;;;;5054872;28;20564;-88
2021/12/07 01:29:11;;;;;;;7.68;4.47;;;;;;;;;;5040638;28;20397;-88
2021/12/07 01:31:51;;;;;;;10.15;5.47;;;;;;;;;;5042649;28;20043;-88
2021/12/07 01:37:06;;;;;;;9.50;4.38;;;;;;;;;;5058202;28;20037;-88
2021/12/07 01:45:09;;;;;;;8.10;4.35;;;;;;;;;;5058547;28;20127;-90
2021/12/07 01:47:49;;;;;;;8.20;4.68;;;;;;;;;;5058879;28;20036;-88
2021/12/07 01:53:19;;;;;;;7.03;4.45;;;;;;;;;;5058176;28;20044;-87
2021/12/07 02:01:03;;;;;;;6.72;3.60;;;;;;;;;;5058441;28;20044;-87
2021/12/07 02:03:29;;;;;;;8.07;4.10;;;;;;;;;;5058663;28;20492;-88
2021/12/07 02:05:54;;;;;;;6.07;3.60;;;;;;;;;;5057452;28;20545;-88
2021/12/07 02:08:19;;;;;;;8.00;3.97;;;;;;;;;;5041493;28;20040;-88
2021/12/07 02:10:46;;;;;;;7.32;3.92;;;;;;;;;;5042663;28;20301;-88
2021/12/07 02:16:03;;;;;;;5.57;3.53;;;;;;;;;;5056552;28;20424;-90
2021/12/07 02:18:31;;;;;;;8.38;3.97;;;;;;;;;;5042807;28;20025;-89
2021/12/07 02:20:56;;;;;;;6.15;4.00;;;;;;;;;;5042422;28;20036;-88
2021/12/07 02:23:21;;;;;;;6.45;3.78;;;;;;;;;;5057313;28;20468;-87
2021/12/07 02:25:48;;;;;;;9.27;4.03;;;;;;;;;;5056739;28;20025;-88
2021/12/07 02:28:15;;;;;;;8.52;4.05;;;;;;;;;;5056056;28;20465;-88
2021/12/07 02:30:41;;;;;;;8.48;3.58;;;;;;;;;;5056908;28;20182;-88
2021/12/07 02:33:06;;;;;;;6.80;3.90;;;;;;;;;;5057089;28;20497;-89
2021/12/07 02:35:31;;;;;;;7.57;4.13;;;;;;;;;;5057913;28;20435;-87
2021/12/07 02:38:00;;;;;;;7.05;3.80;;;;;;;;;;5040755;28;20453;-88
2021/12/07 02:40:29;;;;;;;7.43;3.70;;;;;;;;;;5055945;28;20037;-88
2021/12/07 02:42:54;;;;;;;6.72;3.80;;;;;;;;;;5056466;28;20029;-88
2021/12/07 02:45:21;;;;;;;5.85;3.20;;;;;;;;;;5039375;28;20029;-89
2021/12/07 02:47:46;;;;;;;6.20;3.38;;;;;;;;;;5058402;28;20115;-88
2021/12/07 02:50:12;;;;;;;6.38;3.35;;;;;;;;;;5055375;28;20032;-87
2021/12/07 02:52:38;;;;;;;5.50;2.90;;;;;;;;;;5064082;28;20035;-87
2021/12/07 02:55:06;;;;;;;4.95;3.03;;;;;;;;;;5056705;28;20033;-88
2021/12/07 02:57:33;;;;;;;5.18;2.78;;;;;;;;;;5055794;28;20035;-87
2021/12/07 03:00:06;;;;;;;6.85;3.55;;;;;;;;;;5038528;28;20040;-88
2021/12/07 03:02:37;;;;;;;7.43;3.73;;;;;;;;;;5038260;28;20029;-88
2021/12/07 03:05:14;;;;;;;5.97;3.50;;;;;;;;;;5055595;28;20279;-87
2021/12/07 03:26:42;;;;;;;3.13;2.03;;;;;;;;;;5054539;28;20147;-88
2021/12/07 03:29:08;;;;;;;8.02;3.50;;;;;;;;;;5054837;28;20033;-89
2021/12/07 03:31:34;;;;;;;7.18;3.30;;;;;;;;;;5037922;28;20455;-88
2021/12/07 03:34:00;;;;;;;5.97;2.83;;;;;;;;;;5056033;28;20029;-88
2021/12/07 03:36:28;;;;;;;6.65;3.42;;;;;;;;;;5054713;28;20491;-89
2021/12/07 03:38:56;;;;;;;5.15;3.15;;;;;;;;;;5056335;28;20024;-88
2021/12/07 03:41:22;;;;;;;6.68;3.42;;;;;;;;;;5038083;28;20076;-88
2021/12/07 03:43:47;;;;;;;5.00;3.30;;;;;;;;;;5056245;28;20040;-88
2021/12/07 03:46:14;;;;;;;5.00;2.80;;;;;;;;;;5054365;28;20064;-88
2021/12/07 03:48:40;;;;;;;6.95;3.10;;;;;;;;;;5054866;28;20029;-89
2021/12/07 03:51:06;;;;;;;5.15;2.90;;;;;;;;;;5037457;28;20087;-87
2021/12/07 03:53:32;;;;;;;5.95;3.30;;;;;;;;;;5055284;28;20021;-88
2021/12/07 03:55:58;;;;;;;4.85;3.17;;;;;;;;;;5038022;28;20102;-87
2021/12/07 03:58:25;;;;;;;4.95;3.20;;;;;;;;;;5038188;28;20033;-87
2021/12/07 04:00:50;;;;;;;4.25;2.60;;;;;;;;;;5037772;28;20048;-88
2021/12/07 04:03:15;;;;;;;2.75;1.80;;;;;;;;;;5037800;28;20102;-89
2021/12/07 04:05:53;;;;;;;3.92;2.35;;;;;;;;;;5054062;28;20032;-90
2021/12/07 04:08:20;;;;;;;5.13;2.00;;;;;;;;;;5038085;28;20099;-89
2021/12/07 04:10:46;;;;;;;6.05;2.50;;;;;;;;;;5054279;28;20041;-89
2021/12/07 04:13:11;;;;;;;4.35;2.63;;;;;;;;;;5055470;28;20123;-89
2021/12/07 04:15:36;;;;;;;5.07;2.63;;;;;;;;;;5037380;28;20044;-89
2021/12/07 04:18:02;;;;;;;4.72;2.33;;;;;;;;;;5054316;28;20501;-89
2021/12/07 04:20:27;;;;;;;7.68;2.60;;;;;;;;;;5037103;28;20550;-89
2021/12/07 04:22:54;;;;;;;4.28;2.22;;;;;;;;;;5037411;28;20036;-89
2021/12/07 04:25:19;;;;;;;7.68;2.65;;;;;;;;;;5037501;28;20044;-89
2021/12/07 04:27:44;;;;;;;6.43;2.22;;;;;;;;;;5055496;28;20033;-89
2021/12/07 04:30:10;;;;;;;6.10;2.22;;;;;;;;;;5054100;28;20036;-89
2021/12/07 04:32:35;;;;;;;7.60;3.03;;;;;;;;;;5037404;28;20393;-88
2021/12/07 04:35:00;;;;;;;5.68;2.50;;;;;;;;;;5036851;28;20033;-90
2021/12/07 04:37:26;;;;;;;5.50;3.13;;;;;;;;;;5053995;28;20025;-88
2021/12/07 04:39:51;;;;;;;5.50;3.25;;;;;;;;;;5054755;28;20040;-87
2021/12/07 04:42:16;;;;;;;6.60;3.22;;;;;;;;;;5037913;28;20128;-88
2021/12/07 04:44:50;;;;;;;6.47;3.60;;;;;;;;;;5055681;28;20037;-88
2021/12/07 04:47:23;;;;;;;5.47;3.00;;;;;;;;;;5054898;28;20036;-87
2021/12/07 04:57:47;;;;;;;5.05;2.88;;;;;;;;;;5055558;28;20147;-87
2021/12/07 05:00:12;;;;;;;7.07;3.10;;;;;;;;;;5037784;28;20033;-88
2021/12/07 05:02:40;;;;;;;5.30;2.90;;;;;;;;;;5039787;28;20492;-87
2021/12/07 05:05:05;;;;;;;4.88;2.85;;;;;;;;;;5041157;28;20774;-87
2021/12/07 05:07:39;;;;;;;4.00;2.53;;;;;;;;;;5059979;28;20033;-88
2021/12/07 05:15:44;;;;;;;4.70;2.88;;;;;;;;;;5059670;28;22975;-88
2021/12/07 05:18:33;;;;;;;4.88;2.65;;;;;;;;;;5062169;28;20539;-87
2021/12/07 05:39:43;;;;;;;4.45;2.63;;;;;;;;;;5058056;28;20028;-89
2021/12/07 05:42:09;;;;;;;4.40;2.55;;;;;;;;;;5041311;28;20041;-88
2021/12/07 05:44:34;;;;;;;3.85;2.30;;;;;;;;;;5041205;28;20021;-89
2021/12/07 05:46:59;;;;;;;4.95;3.10;;;;;;;;;;5058961;28;20040;-88
2021/12/07 05:49:25;;;;;;;7.78;2.53;;;;;;;;;;5041748;28;20048;-87
2021/12/07 05:51:50;;;;;;;5.50;2.33;;;;;;;;;;5058551;28;20013;-88
2021/12/07 05:54:15;;;;;;;6.18;2.17;;;;;;;;;;5040913;28;20125;-88
2021/12/07 05:56:41;;;;;;;3.50;2.08;;;;;;;;;;5041548;28;20032;-88
2021/12/07 05:59:06;;;;;;;4.55;2.63;;;;;;;;;;5058635;28;20139;-89
2021/12/07 06:01:31;;;;;;;5.72;2.90;;;;;;;;;;5041531;28;20368;-87
2021/12/07 06:03:57;;;;;;;4.22;2.92;;;;;;;;;;5058321;28;20029;-88
2021/12/07 06:06:22;;;;;;;3.13;1.75;;;;;;;;;;5056847;28;20228;-88
2021/12/07 06:08:47;;;;;;;4.90;2.35;;;;;;;;;;5039558;28;20060;-88
2021/12/07 06:11:13;;;;;;;6.72;2.42;;;;;;;;;;5057046;28;20028;-88
2021/12/07 06:13:38;;;;;;;4.15;2.17;;;;;;;;;;5040075;28;20021;-88
2021/12/07 06:16:07;;;;;;;5.40;3.10;;;;;;;;;;5057169;28;20063;-88
2021/12/07 06:18:32;;;;;;;4.35;2.83;;;;;;;;;;5040264;28;20037;-88
2021/12/07 06:20:57;;;;;;;2.85;1.80;;;;;;;;;;5040722;28;20133;-88
2021/12/07 06:23:22;;;;;;;3.50;2.15;;;;;;;;;;5055926;28;20083;-87
2021/12/07 06:25:48;;;;;;;4.00;2.20;;;;;;;;;;5039496;28;20033;-88
2021/12/07 06:28:13;;;;;;;4.47;2.55;;;;;;;;;;5056702;28;20094;-87
2021/12/07 06:30:39;;;;;;;3.88;2.00;;;;;;;;;;5056700;28;20040;-88
2021/12/07 06:33:04;;;;;;;3.35;1.98;;;;;;;;;;5040370;28;20075;-87
2021/12/07 06:35:29;;;;;;;4.00;2.20;;;;;;;;;;5056401;28;20449;-88
2021/12/07 06:37:55;;;;;;;3.72;2.05;;;;;;;;;;5057404;28;20489;-86
2021/12/07 06:40:20;;;;;;;2.65;1.60;;;;;;;;;;5059324;28;20032;-87
2021/12/07 06:42:45;;;;;;;3.92;1.48;;;;;;;;;;5056685;28;20484;-88
2021/12/07 06:45:11;;;;;;;3.20;1.75;;;;;;;;;;5055631;28;20025;-88
2021/12/07 06:47:36;;;;;;;3.85;2.03;;;;;;;;;;5056298;28;20041;-88
2021/12/07 06:50:01;;;;;;;3.63;2.15;;;;;;;;;;5061273;28;20395;-88
2021/12/07 06:52:27;;;;;;;4.75;2.25;;;;;;;;;;5061159;28;20093;-88
2021/12/07 06:54:53;;;;;;;4.03;2.15;;;;;;;;;;5061350;28;20501;-89
2021/12/07 06:57:18;;;;;;;4.05;1.83;;;;;;;;;;5060660;28;20041;-89
2021/12/07 06:59:47;;;;;;;2.78;1.70;;;;;;;;;;5059603;28;20040;-88
2021/12/07 07:02:12;;;;;;;3.05;1.85;;;;;;;;;;5057092;28;20081;-88
2021/12/07 07:04:37;;;;;;;4.45;2.17;;;;;;;;;;5040130;28;20127;-87
2021/12/07 07:07:03;;;;;;;11.65;4.30;;;;;;;;;;5055217;28;20032;-87
2021/12/07 07:09:37;;;;;;;3.08;1.70;;;;;;;;;;5040469;28;20057;-88
2021/12/07 07:12:02;;;;;;;4.22;2.13;;;;;;;;;;5056599;28;20040;-88
2021/12/07 07:14:45;;;;;;;3.28;1.52;;;;;;;;;;5060183;28;20136;-87
2021/12/07 07:17:11;;;;;;;2.08;1.25;;;;;;;;;;5056841;28;20540;-87
2021/12/07 07:19:36;;;;;;;3.72;1.75;;;;;;;;;;5057396;28;20029;-87
2021/12/07 07:22:02;;;;;;;2.90;1.90;;;;;;;;;;5056577;28;20365;-89
2021/12/07 07:24:28;;;;;;;2.70;1.58;;;;;;;;;;5056354;28;20053;-89
2021/12/07 07:36:23;;;;;;;3.97;1.90;;;;;;;;;;5079628;28;20082;-89
2021/12/07 07:38:51;;;;;;;2.45;1.45;;;;;;;;;;5077004;28;20086;-90
2021/12/07 07:41:34;;;;;;;4.72;1.80;;;;;;;;;;5059333;28;20663;-89
2021/12/07 07:43:59;;;;;;;2.30;1.35;;;;;;;;;;5059044;28;20071;-89
2021/12/07 07:46:26;;;;;;;2.83;1.60;;;;;;;;;;5059354;28;20487;-90
2021/12/07 07:52:01;;;;;;;2.50;1.48;;;;;;;;;;5076707;28;20035;-90
2021/12/07 07:54:28;;;;;;;5.07;1.60;;;;;;;;;;5058179;28;20033;-89
2021/12/07 07:56:53;;;;;;;4.28;1.77;;;;;;;;;;5041925;28;20062;-89
2021/12/07 07:59:19;;;;;;;3.30;1.48;;;;;;;;;;5076560;28;20456;-88
2021/12/07 08:01:44;;;;;;;2.70;1.30;;;;;;;;;;5058553;28;20438;-88
2021/12/07 08:04:09;;;;;;;1.90;1.20;;;;;;;;;;5077000;28;20016;-88
2021/12/07 08:06:34;;;;;;;2.83;1.23;;;;;;;;;;5075446;28;20024;-87
2021/12/07 08:09:00;;;;;;;2.00;1.38;;;;;;;;;;5057014;28;20036;-89
2021/12/07 08:11:28;;;;;;;2.17;1.38;;;;;;;;;;5041266;28;20040;-88
2021/12/07 08:13:53;;;;;;;3.70;1.70;;;;;;;;;;5059089;28;20039;-88
2021/12/07 08:16:20;;;;;;;2.05;0.98;;;;;;;;;;5074493;28;20052;-86
2021/12/07 08:18:45;;;;;;;1.45;1.05;;;;;;;;;;5075180;28;20495;-86
2021/12/07 08:21:10;;;;;;;0.80;0.60;;;;;;;;;;5058885;28;20482;-88
2021/12/07 08:23:36;;;;;;;2.17;1.15;;;;;;;;;;5076867;28;20445;-88
2021/12/07 08:26:01;;;;;;;3.33;1.13;;;;;;;;;;5076633;28;20032;-88
2021/12/07 08:28:27;;;;;;;3.33;1.35;;;;;;;;;;5059475;28;20102;-87
2021/12/07 08:30:52;;;;;;;3.00;1.20;;;;;;;;;;5041687;28;20064;-87
2021/12/07 08:33:17;;;;;;;1.80;1.00;;;;;;;;;;5057750;28;20068;-87
2021/12/07 08:35:43;;;;;;;2.65;1.55;;;;;;;;;;5077320;28;20045;-87
2021/12/07 08:38:08;;;;;;;2.45;1.20;;;;;;;;;;5045882;28;20032;-87
2021/12/07 08:40:34;;;;;;;3.53;1.50;;;;;;;;;;5081582;28;20052;-88
2021/12/07 08:42:59;;;;;;;3.03;1.55;;;;;;;;;;5066899;28;20043;-87
2021/12/07 08:45:27;;;;;;;2.67;1.20;;;;;;;;;;5081965;28;20029;-88
2021/12/07 08:47:52;;;;;;;3.72;1.70;;;;;;;;;;5064487;28;20056;-87
2021/12/07 08:50:17;;;;;;;3.83;1.90;;;;;;;;;;5064705;28;20094;-88
2021/12/07 08:52:43;;;;;;;3.72;1.80;;;;;;;;;;5064687;28;20040;-88
2021/12/07 09:00:23;;;;;;;5.32;1.70;;;;;;;;;;5082922;28;20039;-88
2021/12/07 09:02:49;;;;;;;1.75;1.15;;;;;;;;;;5082429;28;20032;-88
2021/12/07 09:05:14;;;;;;;3.58;1.52;;;;;;;;;;5081965;28;20468;-88
2021/12/07 09:07:40;;;;;;;2.28;1.10;;;;;;;;;;5064394;28;20036;-88
2021/12/07 09:10:05;;;;;;;4.53;1.65;;;;;;;;;;5063993;28;20040;-88
2021/12/07 09:12:30;;;;;;;6.38;1.48;;;;;;;;;;5082112;28;20032;-88
2021/12/07 09:14:56;;;;;;;4.88;1.50;;;;;;;;;;5081626;28;20034;-88
2021/12/07 09:17:21;;;;;;;2.42;1.55;;;;;;;;;;5081810;28;20044;-88
2021/12/07 09:19:46;;;;;;;3.58;1.70;;;;;;;;;;5082622;28;20040;-88
2021/12/07 09:22:12;;;;;;;2.90;1.60;;;;;;;;;;5064934;28;20040;-88
2021/12/07 09:24:37;;;;;;;4.63;1.50;;;;;;;;;;5065507;28;20035;-88
2021/12/07 09:27:02;;;;;;;1.67;0.90;;;;;;;;;;5082274;28;20040;-88
2021/12/07 09:29:28;;;;;;;2.42;1.40;;;;;;;;;;5047748;28;20494;-89
2021/12/07 09:31:53;;;;;;;3.55;1.70;;;;;;;;;;5081942;28;20028;-88
2021/12/07 09:34:18;;;;;;;4.50;2.08;;;;;;;;;;5063708;28;20146;-88
2021/12/07 09:36:44;;;;;;;5.25;2.20;;;;;;;;;;5063955;28;20080;-89
2021/12/07 09:39:09;;;;;;;5.57;2.50;;;;;;;;;;5082419;28;20047;-89
2021/12/07 09:41:34;;;;;;;4.55;2.15;;;;;;;;;;5063579;28;20041;-88
2021/12/07 09:43:59;;;;;;;3.33;1.90;;;;;;;;;;5081440;28;20045;-89
2021/12/07 09:46:25;;;;;;;5.35;1.98;;;;;;;;;;5080940;28;20035;-88
2021/12/07 09:48:50;;;;;;;2.70;1.65;;;;;;;;;;5081264;28;20115;-88
2021/12/07 09:51:16;;;;;;;6.35;2.28;;;;;;;;;;5045987;28;20036;-87
2021/12/07 09:53:41;;;;;;;6.18;2.05;;;;;;;;;;5062897;28;20029;-88
2021/12/07 09:56:07;;;;;;;3.60;1.75;;;;;;;;;;5062577;28;20399;-88
2021/12/07 09:58:32;;;;;;;4.30;1.90;;;;;;;;;;5062304;28;20446;-89
2021/12/07 10:00:57;;;;;;;2.90;1.40;;;;;;;;;;5063285;28;20073;-89
2021/12/07 10:03:26;;;;;;;4.22;1.75;;;;;;;;;;5062697;28;20048;-91
2021/12/07 10:05:51;;;;;;;3.25;1.63;;;;;;;;;;5081141;28;20029;-90
2021/12/07 10:08:16;;;;;;;4.07;2.05;;;;;;;;;;5062439;28;20120;-89
2021/12/07 10:10:42;;;;;;;4.32;2.42;;;;;;;;;;5080495;28;20060;-90
2021/12/07 10:13:07;;;;;;;8.70;3.20;;;;;;;;;;5079810;28;20029;-89
2021/12/07 10:15:32;;;;;;;3.42;1.90;;;;;;;;;;5044254;28;20123;-89
2021/12/07 10:17:58;;;;;;;6.18;2.00;;;;;;;;;;5061733;28;20035;-89
2021/12/07 10:20:23;;;;;;;3.20;1.80;;;;;;;;;;5079904;28;20070;-88
2021/12/07 10:22:48;;;;;;;6.70;2.20;;;;;;;;;;5061892;28;20036;-88
2021/12/07 10:25:14;;;;;;;4.63;2.10;;;;;;;;;;5079607;28;20058;-88
2021/12/07 10:27:39;;;;;;;7.00;2.10;;;;;;;;;;5080563;28;20400;-88
2021/12/07 10:30:04;;;;;;;7.13;2.83;;;;;;;;;;5080180;28;20546;-89
2021/12/07 10:32:29;;;;;;;5.60;2.60;;;;;;;;;;5080977;28;20583;-89
2021/12/07 10:34:55;;;;;;;5.30;1.80;;;;;;;;;;5064597;28;20121;-88
2021/12/07 10:37:20;;;;;;;3.83;1.52;;;;;;;;;;5080985;28;20075;-88
2021/12/07 10:39:45;;;;;;;4.10;1.92;;;;;;;;;;5081122;28;20036;-87
2021/12/07 10:42:11;;;;;;;4.22;1.98;;;;;;;;;;5081223;28;20032;-89
2021/12/07 10:44:36;;;;;;;4.72;1.58;;;;;;;;;;5062887;28;20062;-88
2021/12/07 10:47:01;;;;;;;5.90;2.17;;;;;;;;;;5045819;28;20408;-88
2021/12/07 10:49:27;;;;;;;3.92;1.80;;;;;;;;;;5046887;28;20094;-88
2021/12/07 10:51:53;;;;;;;4.55;1.98;;;;;;;;;;5064205;28;20036;-88
2021/12/07 10:54:18;;;;;;;4.78;1.73;;;;;;;;;;5081023;28;20055;-88
2021/12/07 10:56:45;;;;;;;3.97;1.88;;;;;;;;;;5079886;28;20040;-89
2021/12/07 10:59:11;;;;;;;5.20;1.98;;;;;;;;;;5081297;28;20036;-89
2021/12/07 11:01:36;;;;;;;5.03;1.67;;;;;;;;;;5062047;28;20040;-88
2021/12/07 11:04:01;;;;;;;6.38;2.10;;;;;;;;;;5062229;28;20096;-88
2021/12/07 11:06:27;;;;;;;5.75;2.13;;;;;;;;;;5061166;28;20043;-87
2021/12/07 11:08:52;;;;;;;3.05;1.30;;;;;;;;;;5060707;28;20043;-87
2021/12/07 11:11:17;;;;;;;2.28;1.13;;;;;;;;;;5078580;28;20044;-89
2021/12/07 11:13:42;;;;;;;4.80;1.40;;;;;;;;;;5080037;28;20036;-89
2021/12/07 11:16:10;;;;;;;6.63;1.90;;;;;;;;;;5079886;28;20060;-89
2021/12/07 11:18:35;;;;;;;4.22;2.08;;;;;;;;;;5080410;28;20036;-88
2021/12/07 11:21:01;;;;;;;5.45;2.33;;;;;;;;;;5078345;28;20396;-87
2021/12/07 11:23:26;;;;;;;7.40;2.15;;;;;;;;;;5062018;28;20024;-88
2021/12/07 11:31:01;;;;;;;3.47;1.60;;;;;;;;;;5080630;28;20040;-89
2021/12/07 11:33:26;;;;;;;3.35;1.45;;;;;;;;;;5079751;28;20020;-88
2021/12/07 11:35:52;;;;;;;3.78;1.27;;;;;;;;;;5061770;28;20063;-89
2021/12/07 11:38:18;;;;;;;4.88;1.65;;;;;;;;;;5079926;28;20066;-89
2021/12/07 11:40:44;;;;;;;2.42;0.98;;;;;;;;;;5062629;28;20033;-88
2021/12/07 11:43:09;;;;;;;4.10;1.30;;;;;;;;;;5061341;28;20066;-88
2021/12/07 11:45:35;;;;;;;2.60;1.10;;;;;;;;;;5079008;28;20119;-88
2021/12/07 11:48:00;;;;;;;3.28;1.30;;;;;;;;;;5079221;28;20082;-89
2021/12/07 11:50:25;;;;;;;4.50;0.95;;;;;;;;;;5060982;28;20044;-86
2021/12/07 11:52:50;;;;;;;4.65;1.58;;;;;;;;;;5061180;28;20598;-89
2021/12/07 11:55:16;;;;;;;3.28;1.27;;;;;;;;;;5078694;28;20496;-87
2021/12/07 11:57:41;;;;;;;4.65;1.55;;;;;;;;;;5077944;28;20083;-88
2021/12/07 12:00:06;;;;;;;3.28;1.00;;;;;;;;;;5078533;28;20032;-88
2021/12/07 12:02:35;;;;;;;4.13;1.70;;;;;;;;;;5061394;28;20074;-87
2021/12/07 12:05:00;;;;;;;6.97;2.50;;;;;;;;;;5060848;28;20111;-88
2021/12/07 12:07:27;;;;;;;4.53;1.85;;;;;;;;;;5078678;28;20118;-88
2021/12/07 12:09:53;;;;;;;4.82;2.30;;;;;;;;;;5079087;28;20384;-88
2021/12/07 12:12:18;;;;;;;6.40;2.60;;;;;;;;;;5059890;28;20081;-89
2021/12/07 12:14:43;;;;;;;6.10;2.35;;;;;;;;;;5060382;28;20032;-87
2021/12/07 12:17:09;;;;;;;12.07;8.75;;;;;;;;;;5077076;28;20101;-88
2021/12/07 12:19:34;;;;;;;4.38;2.10;;;;;;;;;;5078135;28;20025;-87
2021/12/07 12:22:00;;;;;;;4.97;2.83;;;;;;;;;;5060257;28;20045;-88
2021/12/07 12:24:25;;;;;;;6.53;2.38;;;;;;;;;;5078715;28;20044;-88
2021/12/07 12:26:50;;;;;;;3.03;1.50;;;;;;;;;;5059699;28;20033;-88
2021/12/07 12:29:16;;;;;;;3.83;1.73;;;;;;;;;;5078525;28;20040;-89
2021/12/07 12:31:41;;;;;;;4.05;1.80;;;;;;;;;;5079438;28;20123;-88
2021/12/07 12:34:06;;;;;;;4.90;1.80;;;;;;;;;;5078729;28;20036;-88
2021/12/07 12:36:32;;;;;;;3.08;1.85;;;;;;;;;;5079210;28;20036;-88
2021/12/07 12:38:57;;;;;;;4.10;1.80;;;;;;;;;;5079183;28;20089;-88
2021/12/07 12:41:22;;;;;;;3.42;1.85;;;;;;;;;;5078616;28;20361;-88
2021/12/07 12:43:50;;;;;;;7.45;2.00;;;;;;;;;;5059089;28;20046;-88
2021/12/07 12:46:15;;;;;;;6.47;2.38;;;;;;;;;;5076106;28;20039;-88
2021/12/07 12:48:40;;;;;;;1.45;1.00;;;;;;;;;;5076460;28;20379;-88
2021/12/07 12:51:06;;;;;;;3.25;1.40;;;;;;;;;;5076528;28;20032;-87
2021/12/07 12:53:32;;;;;;;4.25;2.10;;;;;;;;;;5076423;28;20028;-88
2021/12/07 12:55:57;;;;;;;4.47;2.00;;;;;;;;;;5057333;28;20048;-87
2021/12/07 12:58:22;;;;;;;5.30;1.90;;;;;;;;;;5057663;28;20035;-87
2021/12/07 13:00:47;;;;;;;5.72;2.45;;;;;;;;;;5076081;28;20029;-88
2021/12/07 13:03:13;;;;;;;5.80;2.78;;;;;;;;;;5058146;28;20036;-87
2021/12/07 13:05:42;;;;;;;4.32;2.53;;;;;;;;;;5056788;28;20033;-88
2021/12/07 13:08:08;;;;;;;4.70;2.00;;;;;;;;;;5072020;28;20486;-87
2021/12/07 13:10:33;;;;;;;4.47;2.10;;;;;;;;;;5056867;28;20041;-86
2021/12/07 13:12:58;;;;;;;5.38;2.60;;;;;;;;;;5057795;28;20027;-88
2021/12/07 13:15:24;;;;;;;7.32;3.40;;;;;;;;;;5056220;28;20032;-87
2021/12/07 13:17:49;;;;;;;11.73;4.25;;;;;;;;;;5040461;28;20131;-87
2021/12/07 13:20:14;;;;;;;5.75;2.50;;;;;;;;;;5076014;28;20107;-87
2021/12/07 13:22:40;;;;;;;7.05;3.55;;;;;;;;;;5058142;28;20044;-88
2021/12/07 13:25:05;;;;;;;4.30;2.20;;;;;;;;;;5062188;28;20039;-87
2021/12/07 13:27:30;;;;;;;4.70;2.03;;;;;;;;;;5044498;28;20031;-88
2021/12/07 13:29:56;;;;;;;5.43;2.35;;;;;;;;;;5079149;28;20094;-88
2021/12/07 13:32:21;;;;;;;4.32;2.00;;;;;;;;;;5060756;28;20029;-88
2021/12/07 13:34:46;;;;;;;4.43;2.40;;;;;;;;;;5060772;28;20040;-87
2021/12/07 13:37:11;;;;;;;4.47;2.42;;;;;;;;;;5079475;28;20024;-87
2021/12/07 13:39:37;;;;;;;4.78;2.35;;;;;;;;;;5062342;28;20573;-88
2021/12/07 13:42:05;;;;;;;6.57;2.72;;;;;;;;;;5079570;28;20043;-89
2021/12/07 13:44:31;;;;;;;5.53;2.50;;;;;;;;;;5079377;28;20115;-88
2021/12/07 13:46:56;;;;;;;4.20;2.25;;;;;;;;;;5078574;28;20044;-88
2021/12/07 13:49:21;;;;;;;7.82;2.78;;;;;;;;;;5061239;28;20086;-88
2021/12/07 13:51:47;;;;;;;7.13;2.90;;;;;;;;;;5079725;28;20070;-88
2021/12/07 13:54:12;;;;;;;9.00;3.97;;;;;;;;;;5045616;28;20033;-88
2021/12/07 13:56:37;;;;;;;7.15;3.25;;;;;;;;;;5079482;28;20032;-88
2021/12/07 13:59:03;;;;;;;9.15;4.30;;;;;;;;;;5045461;28;20057;-88
2021/12/07 14:01:28;;;;;;;10.20;3.88;;;;;;;;;;5061900;28;20040;-87
2021/12/07 14:03:53;;;;;;;7.63;3.00;;;;;;;;;;5080005;28;20032;-88
2021/12/07 14:06:19;;;;;;;9.00;3.35;;;;;;;;;;5061158;28;20042;-89
2021/12/07 14:08:44;;;;;;;16.77;5.18;;;;;;;;;;5061794;28;20102;-88
2021/12/07 14:11:10;;;;;;;16.63;5.47;;;;;;;;;;5079960;28;20436;-88
2021/12/07 14:13:35;;;;;;;24.50;7.35;;;;;;;;;;5079716;28;20032;-88
2021/12/07 14:16:00;;;;;;;31.75;11.27;;;;;;;;;;5060304;28;20052;-88
2021/12/07 14:18:26;;;;;;;13.70;5.47;;;;;;;;;;5079866;28;20106;-88
2021/12/07 14:20:53;;;;;;;11.32;3.72;;;;;;;;;;5080551;28;20025;-88
2021/12/07 14:23:18;;;;;;;11.70;4.00;;;;;;;;;;5043719;28;20055;-88
2021/12/07 14:25:43;;;;;;;13.05;5.20;;;;;;;;;;5062699;28;20439;-88
2021/12/07 14:28:09;;;;;;;8.20;4.20;;;;;;;;;;5057242;28;20016;-89
2021/12/07 14:30:34;;;;;;;15.38;5.70;;;;;;;;;;5054381;28;20392;-87
2021/12/07 14:32:59;;;;;;;8.32;3.65;;;;;;;;;;5060265;28;20468;-87
2021/12/07 14:35:24;;;;;;;6.88;3.88;;;;;;;;;;5076629;28;20037;-87
2021/12/07 14:37:50;;;;;;;5.78;3.17;;;;;;;;;;5075880;28;20511;-87
2021/12/07 14:40:15;;;;;;;7.63;3.65;;;;;;;;;;5078267;28;20119;-87
2021/12/07 14:42:40;;;;;;;7.70;3.30;;;;;;;;;;5078285;28;20130;-88
2021/12/07 14:45:06;;;;;;;6.28;3.40;;;;;;;;;;5042862;28;20118;-87
2021/12/07 14:47:31;;;;;;;8.95;4.20;;;;;;;;;;5060101;28;20024;-87
2021/12/07 14:49:56;;;;;;;9.68;4.85;;;;;;;;;;5060582;28;20036;-85
2021/12/07 14:52:22;;;;;;;10.25;5.72;;;;;;;;;;5078684;28;20098;-87
2021/12/07 14:54:47;;;;;;;8.98;4.57;;;;;;;;;;5078783;28;20037;-87
2021/12/07 14:57:12;;;;;;;9.10;4.18;;;;;;;;;;5060435;28;20484;-87
2021/12/07 14:59:38;;;;;;;8.93;3.67;;;;;;;;;;5060393;28;20085;-87
2021/12/07 15:02:03;;;;;;;6.82;3.70;;;;;;;;;;5044785;28;20032;-87
2021/12/07 15:04:29;;;;;;;6.15;3.70;;;;;;;;;;5078558;28;20403;-88
2021/12/07 15:06:54;;;;;;;8.48;4.50;;;;;;;;;;5060159;28;20036;-88
2021/12/07 15:09:19;;;;;;;9.30;4.70;;;;;;;;;;5079035;28;20036;-89
2021/12/07 15:11:45;;;;;;;11.52;5.50;;;;;;;;;;5061587;28;20036;-89
2021/12/07 15:14:10;;;;;;;8.13;4.60;;;;;;;;;;5043895;28;20024;-89
2021/12/07 15:16:36;;;;;;;8.80;4.20;;;;;;;;;;5078673;28;20455;-89
2021/12/07 15:19:01;;;;;;;8.25;3.72;;;;;;;;;;5079635;28;20107;-89
2021/12/07 15:21:26;;;;;;;6.45;3.70;;;;;;;;;;5061141;28;20127;-88
2021/12/07 15:23:52;;;;;;;5.43;3.13;;;;;;;;;;5044676;28;20039;-88
2021/12/07 15:26:17;;;;;;;7.05;3.70;;;;;;;;;;5061223;28;20035;-88
2021/12/07 15:28:42;;;;;;;6.05;3.78;;;;;;;;;;5060504;28;20039;-88
2021/12/07 15:31:08;;;;;;;6.30;3.60;;;;;;;;;;5045516;28;20063;-88
2021/12/07 15:33:33;;;;;;;6.47;3.90;;;;;;;;;;5061681;28;20554;-88
2021/12/07 15:35:58;;;;;;;10.05;4.38;;;;;;;;;;5061845;28;20036;-90
2021/12/07 15:38:24;;;;;;;9.15;4.75;;;;;;;;;;5079943;28;20546;-88
2021/12/07 15:40:49;;;;;;;12.48;4.57;;;;;;;;;;5063990;28;20033;-88
2021/12/07 15:43:14;;;;;;;11.35;5.13;;;;;;;;;;5060601;28;20439;-88
2021/12/07 15:45:41;;;;;;;9.82;4.43;;;;;;;;;;5061278;28;20032;-88
2021/12/07 15:48:06;;;;;;;8.85;4.20;;;;;;;;;;5060946;28;20392;-88
2021/12/07 15:50:31;;;;;;;8.02;4.15;;;;;;;;;;5044619;28;20044;-88
2021/12/07 15:53:02;;;;;;;8.35;5.07;;;;;;;;;;5061804;28;20067;-87
2021/12/07 15:55:29;;;;;;;6.85;3.50;;;;;;;;;;5060899;28;20539;-88
2021/12/07 15:57:55;;;;;;;5.72;3.40;;;;;;;;;;5046220;28;20051;-87
2021/12/07 16:00:21;;;;;;;7.15;3.42;;;;;;;;;;5053195;28;20511;-88
2021/12/07 16:02:46;;;;;;;8.02;3.85;;;;;;;;;;5051791;28;20044;-87
2021/12/07 16:05:11;;;;;;;6.70;3.67;;;;;;;;;;5087278;28;20040;-87
2021/12/07 16:07:37;;;;;;;9.43;4.05;;;;;;;;;;5056143;28;20037;-87
2021/12/07 16:10:02;;;;;;;9.02;3.65;;;;;;;;;;5066576;28;20080;-86
2021/12/07 16:12:27;;;;;;;8.55;4.05;;;;;;;;;;5052959;28;20037;-85
2021/12/07 16:14:53;;;;;;;7.88;3.35;;;;;;;;;;5047420;28;20041;-87
2021/12/07 16:17:18;;;;;;;6.57;3.72;;;;;;;;;;5041045;28;20120;-88
2021/12/07 16:19:43;;;;;;;6.97;3.97;;;;;;;;;;5074423;28;20035;-87
2021/12/07 16:22:09;;;;;;;6.68;3.63;;;;;;;;;;5061028;28;20036;-89
2021/12/07 16:24:34;;;;;;;8.88;3.92;;;;;;;;;;5079424;28;20029;-88
2021/12/07 16:26:59;;;;;;;7.00;3.67;;;;;;;;;;5079911;28;20499;-88